Time;durP1;ratioP1;P1;durP2;ratioP2;P2;SDS_P1;SDS_P2;PMS_P1;PMS_P2;Temp;Humidity;BMP_temperature;BMP_pressure;BME280_temperature;BME280_humidity;BME280_pressure;Samples;Min_cycle;Max_cycle;Signal;HPM_P1;HPM_P2
2023/03/04 00:02:11;;;;;;;55.33;25.50;;;2.00;98.90;;;;;;5005995;28;20605;-58
2023/03/04 00:04:37;;;;;;;61.63;26.07;;;2.00;98.90;;;;;;5007194;28;20558;-59
2023/03/04 00:07:02;;;;;;;53.90;26.30;;;1.90;99.10;;;;;;5003452;28;20195;-59
2023/03/04 00:09:28;;;;;;;53.53;26.53;;;1.90;99.70;;;;;;5002430;28;20322;-59
2023/03/04 00:11:54;;;;;;;56.10;25.93;;;1.90;99.90;;;;;;5021651;28;20652;-59
2023/03/04 00:14:19;;;;;;;60.80;28.87;;;1.80;99.90;;;;;;5010867;28;20874;-59
2023/03/04 00:16:45;;;;;;;61.67;26.73;;;1.80;99.90;;;;;;5009460;28;20198;-59
2023/03/04 00:19:11;;;;;;;57.03;27.43;;;1.80;99.10;;;;;;5010054;28;20177;-59
2023/03/04 00:21:36;;;;;;;50.83;27.27;;;1.70;98.50;;;;;;5011100;28;20192;-61
2023/03/04 00:24:02;;;;;;;64.17;28.50;;;1.60;98.90;;;;;;5018372;28;20247;-59
2023/03/04 00:26:27;;;;;;;58.37;27.77;;;1.50;99.30;;;;;;5010716;28;20234;-58
2023/03/04 00:28:53;;;;;;;58.90;28.00;;;1.50;99.70;;;;;;5009789;28;20172;-59
2023/03/04 00:31:19;;;;;;;59.20;26.20;;;1.50;99.80;;;;;;5009084;28;20214;-59
2023/03/04 00:33:44;;;;;;;60.67;27.40;;;1.40;99.70;;;;;;5010655;28;20184;-59
2023/03/04 00:36:10;;;;;;;57.23;26.03;;;1.40;99.70;;;;;;5013157;28;20219;-59
2023/03/04 00:38:36;;;;;;;58.07;27.80;;;1.30;99.90;;;;;;5017741;28;20655;-57
2023/03/04 00:41:02;;;;;;;58.33;27.27;;;1.30;99.90;;;;;;5010522;28;20427;-61
2023/03/04 00:43:28;;;;;;;59.20;29.13;;;1.20;99.90;;;;;;5007068;28;20696;-60
2023/03/04 00:45:54;;;;;;;62.47;28.80;;;1.20;99.90;;;;;;4993647;28;20199;-60
2023/03/04 00:48:20;;;;;;;54.87;25.53;;;1.20;99.90;;;;;;4995430;28;20441;-59
2023/03/04 00:50:45;;;;;;;58.53;26.50;;;1.10;99.60;;;;;;5007907;28;20200;-60
2023/03/04 00:53:11;;;;;;;56.03;26.63;;;1.10;99.40;;;;;;5010783;28;20271;-59
2023/03/04 00:55:36;;;;;;;51.87;24.83;;;1.00;99.50;;;;;;5010397;28;20184;-59
2023/03/04 00:58:02;;;;;;;57.43;26.40;;;1.00;99.70;;;;;;5007107;28;20172;-59
2023/03/04 01:00:28;;;;;;;68.00;31.40;;;1.00;99.90;;;;;;5008457;28;20169;-59
2023/03/04 01:02:54;;;;;;;54.63;25.67;;;1.00;99.90;;;;;;5010311;28;20188;-60
2023/03/04 01:05:19;;;;;;;56.60;27.90;;;1.00;99.90;;;;;;5008118;28;20523;-61
2023/03/04 01:07:45;;;;;;;57.20;27.10;;;0.90;99.90;;;;;;5005164;28;20674;-59
2023/03/04 01:10:13;;;;;;;57.20;27.13;;;0.90;99.90;;;;;;5011563;28;20199;-59
2023/03/04 01:12:42;;;;;;;60.80;26.20;;;0.90;99.90;;;;;;5009528;28;20186;-59
2023/03/04 01:15:13;;;;;;;53.13;25.13;;;0.80;99.90;;;;;;5007655;28;20447;-59
2023/03/04 01:17:38;;;;;;;58.67;27.27;;;0.80;99.90;;;;;;5006377;28;20437;-59
2023/03/04 01:20:05;;;;;;;60.43;27.63;;;0.80;99.90;;;;;;5011546;28;20903;-59
2023/03/04 01:22:31;;;;;;;63.63;28.37;;;0.70;99.90;;;;;;5009983;28;20479;-59
2023/03/04 01:24:56;;;;;;;49.43;24.93;;;0.70;99.90;;;;;;5005821;28;20978;-59
2023/03/04 01:27:22;;;;;;;60.67;26.53;;;0.60;99.90;;;;;;5000585;28;20177;-59
2023/03/04 01:29:48;;;;;;;61.43;27.23;;;0.60;99.90;;;;;;5010034;28;20179;-58
2023/03/04 01:32:13;;;;;;;61.17;27.40;;;0.60;99.90;;;;;;5012782;28;20187;-59
2023/03/04 01:34:39;;;;;;;53.70;25.97;;;0.60;99.90;;;;;;5008449;28;20652;-60
2023/03/04 01:37:05;;;;;;;58.73;25.87;;;0.60;99.90;;;;;;5006046;28;20213;-58
2023/03/04 01:39:31;;;;;;;62.27;26.33;;;0.60;99.90;;;;;;5009445;28;21051;-58
2023/03/04 01:41:57;;;;;;;69.47;27.93;;;0.50;99.90;;;;;;5001599;28;20176;-59
2023/03/04 01:44:22;;;;;;;60.20;27.60;;;0.50;99.90;;;;;;5004059;28;20202;-59
2023/03/04 01:46:51;;;;;;;58.17;25.67;;;0.50;99.90;;;;;;5010854;28;20457;-59
2023/03/04 01:49:17;;;;;;;56.97;27.60;;;0.50;99.90;;;;;;5010449;28;20176;-59
2023/03/04 01:51:48;;;;;;;56.57;26.70;;;0.50;99.90;;;;;;5006680;28;20438;-59
2023/03/04 01:54:14;;;;;;;60.60;28.83;;;0.40;99.90;;;;;;5009205;28;21113;-59
2023/03/04 01:56:43;;;;;;;61.80;27.90;;;0.40;99.90;;;;;;5005260;28;20450;-59
2023/03/04 01:59:14;;;;;;;66.50;29.73;;;0.40;99.90;;;;;;5007766;28;20488;-59
2023/03/04 02:01:43;;;;;;;63.93;29.47;;;0.40;99.90;;;;;;5006996;28;20425;-59
2023/03/04 02:04:10;;;;;;;59.83;27.60;;;0.40;99.90;;;;;;5007068;28;20430;-59
2023/03/04 02:06:38;;;;;;;66.47;31.10;;;0.30;99.90;;;;;;5007937;28;20466;-58
2023/03/04 02:09:04;;;;;;;56.80;28.33;;;0.30;99.90;;;;;;5005618;28;20438;-58
2023/03/04 02:11:30;;;;;;;67.20;29.33;;;0.30;99.90;;;;;;5006750;28;20527;-59
2023/03/04 02:13:56;;;;;;;57.57;27.13;;;0.30;99.90;;;;;;5008782;28;20942;-59
2023/03/04 02:16:21;;;;;;;62.00;26.90;;;0.30;99.90;;;;;;5004505;28;20453;-59
2023/03/04 02:18:47;;;;;;;70.23;30.47;;;0.30;99.90;;;;;;5003793;28;20555;-59
2023/03/04 02:21:26;;;;;;;60.83;28.03;;;0.20;99.90;;;;;;5009004;28;20309;-60
2023/03/04 02:24:10;;;;;;;62.57;30.23;;;0.20;99.90;;;;;;5002850;28;20956;-60
2023/03/04 02:26:36;;;;;;;61.03;27.17;;;0.20;99.90;;;;;;5007921;28;21443;-58
2023/03/04 02:29:02;;;;;;;69.43;29.00;;;0.20;99.90;;;;;;5009917;28;20433;-58
2023/03/04 02:31:37;;;;;;;59.17;28.60;;;0.20;99.90;;;;;;5001460;28;20971;-59
2023/03/04 02:34:14;;;;;;;64.97;27.77;;;0.20;99.90;;;;;;5004083;28;20457;-59
2023/03/04 02:36:42;;;;;;;65.63;28.00;;;0.10;99.90;;;;;;5009789;28;20435;-59
2023/03/04 02:39:18;;;;;;;64.70;28.40;;;0.10;99.90;;;;;;5009023;28;21013;-61
2023/03/04 02:41:44;;;;;;;60.00;27.20;;;0.10;99.90;;;;;;5006684;28;20970;-59
2023/03/04 02:44:20;;;;;;;63.93;29.97;;;0.00;99.90;;;;;;5009915;28;20421;-59
2023/03/04 02:46:46;;;;;;;61.40;27.83;;;0.00;99.90;;;;;;5012499;28;20205;-58
2023/03/04 02:49:11;;;;;;;63.23;28.80;;;0.00;99.90;;;;;;5000276;28;20510;-59
2023/03/04 02:51:37;;;;;;;58.67;27.20;;;0.00;99.90;;;;;;5003998;28;20513;-58
2023/03/04 02:54:03;;;;;;;63.20;28.50;;;0.00;99.90;;;;;;5006383;28;20163;-59
2023/03/04 02:56:29;;;;;;;65.80;29.77;;;-0.10;99.90;;;;;;5004610;28;20278;-59
2023/03/04 02:58:54;;;;;;;63.60;29.53;;;-0.10;99.90;;;;;;5008129;28;20163;-59
2023/03/04 03:01:20;;;;;;;54.17;27.80;;;-0.10;99.90;;;;;;5007790;28;20174;-59
2023/03/04 03:03:46;;;;;;;62.13;28.70;;;-0.10;99.90;;;;;;5004263;28;20538;-60
2023/03/04 03:06:11;;;;;;;53.77;27.63;;;-0.20;99.90;;;;;;5006923;28;21040;-59
2023/03/04 03:08:37;;;;;;;67.77;29.23;;;-0.20;99.90;;;;;;5007256;28;20170;-55
2023/03/04 03:11:03;;;;;;;84.20;30.27;;;-0.20;99.90;;;;;;5006938;28;20181;-60
2023/03/04 03:13:29;;;;;;;68.00;27.00;;;-0.20;99.90;;;;;;4998113;28;20207;-58
2023/03/04 03:15:54;;;;;;;60.30;29.43;;;-0.20;99.90;;;;;;5003594;28;20207;-60
2023/03/04 03:18:20;;;;;;;57.37;27.20;;;-0.30;99.90;;;;;;5009520;28;20201;-58
2023/03/04 03:20:45;;;;;;;64.43;27.80;;;-0.30;99.90;;;;;;4996130;28;20191;-59
2023/03/04 03:23:12;;;;;;;67.40;29.70;;;-0.30;99.90;;;;;;5005834;28;20204;-59
2023/03/04 03:25:37;;;;;;;59.90;27.17;;;-0.40;99.90;;;;;;5009107;28;20264;-61
2023/03/04 03:28:03;;;;;;;61.50;28.37;;;-0.40;99.90;;;;;;5005421;28;20930;-59
2023/03/04 03:30:29;;;;;;;61.70;27.90;;;-0.40;99.90;;;;;;5008469;28;20664;-58
2023/03/04 03:32:55;;;;;;;59.90;27.50;;;-0.40;99.90;;;;;;5005101;28;20914;-59
2023/03/04 03:35:20;;;;;;;64.80;28.87;;;-0.40;99.90;;;;;;5009019;28;20708;-59
2023/03/04 03:37:47;;;;;;;69.33;28.00;;;-0.50;99.90;;;;;;5012602;28;20181;-60
2023/03/04 03:40:13;;;;;;;71.57;29.60;;;-0.50;99.90;;;;;;5001598;28;20189;-61
2023/03/04 03:42:39;;;;;;;65.30;27.93;;;-0.50;99.90;;;;;;5003583;28;20442;-58
2023/03/04 03:45:05;;;;;;;60.70;28.23;;;-0.50;99.90;;;;;;5008376;28;20460;-58
2023/03/04 03:47:31;;;;;;;55.10;27.43;;;-0.50;99.90;;;;;;5006599;28;20675;-58
2023/03/04 03:49:56;;;;;;;62.07;29.90;;;-0.60;99.90;;;;;;5005350;28;20441;-60
2023/03/04 03:52:22;;;;;;;71.10;31.10;;;-0.50;99.90;;;;;;5003673;28;20217;-59
2023/03/04 03:54:48;;;;;;;75.07;31.50;;;-0.50;99.90;;;;;;5004085;28;20205;-59
2023/03/04 03:57:13;;;;;;;67.93;29.67;;;-0.60;99.90;;;;;;5004571;28;20528;-59
2023/03/04 03:59:39;;;;;;;61.90;28.53;;;-0.60;99.90;;;;;;5008986;28;20174;-59
2023/03/04 04:02:04;;;;;;;66.50;27.70;;;-0.60;99.90;;;;;;5004609;28;20829;-60
2023/03/04 04:04:30;;;;;;;58.03;28.10;;;-0.60;99.90;;;;;;5002311;28;20179;-60
2023/03/04 04:06:56;;;;;;;66.43;30.60;;;-0.60;99.90;;;;;;5010657;28;20214;-60
2023/03/04 04:09:21;;;;;;;62.50;28.63;;;-0.70;99.90;;;;;;5003112;28;20277;-59
2023/03/04 04:11:47;;;;;;;67.27;29.37;;;-0.70;99.90;;;;;;5007114;28;20174;-60
2023/03/04 04:14:13;;;;;;;65.30;28.60;;;-0.70;99.90;;;;;;5002905;28;20195;-59
2023/03/04 04:16:39;;;;;;;63.53;27.87;;;-0.70;99.90;;;;;;5004244;28;20232;-61
2023/03/04 04:19:05;;;;;;;64.50;28.13;;;-0.70;99.90;;;;;;5000870;28;20476;-59
2023/03/04 04:21:31;;;;;;;65.93;28.50;;;-0.70;99.90;;;;;;5008218;28;20438;-59
2023/03/04 04:23:56;;;;;;;72.80;32.10;;;-0.70;99.90;;;;;;5007721;28;20179;-59
2023/03/04 04:26:22;;;;;;;70.30;28.87;;;-0.70;99.90;;;;;;4997699;28;20218;-59
2023/03/04 04:28:47;;;;;;;64.13;28.90;;;-0.70;99.90;;;;;;5002625;28;20179;-59
2023/03/04 04:31:13;;;;;;;57.53;26.57;;;-0.70;99.90;;;;;;5006746;28;20182;-59
2023/03/04 04:33:38;;;;;;;60.77;29.47;;;-0.70;99.90;;;;;;5017366;28;20383;-59
2023/03/04 04:36:04;;;;;;;65.87;30.30;;;-0.70;99.90;;;;;;5001071;28;20199;-61
2023/03/04 04:38:30;;;;;;;61.43;28.20;;;-0.70;99.90;;;;;;5006205;28;20182;-59
2023/03/04 04:40:57;;;;;;;64.73;27.50;;;-0.70;99.90;;;;;;5005102;28;20575;-59
2023/03/04 04:43:23;;;;;;;68.87;29.37;;;-0.80;99.90;;;;;;5005669;28;20187;-59
2023/03/04 04:45:49;;;;;;;61.33;27.47;;;-0.80;99.90;;;;;;5006563;28;20568;-60
2023/03/04 04:48:15;;;;;;;64.40;28.83;;;-0.80;99.90;;;;;;4998768;28;20502;-60
2023/03/04 04:50:40;;;;;;;61.30;28.07;;;-0.90;99.90;;;;;;5004079;28;20803;-59
2023/03/04 04:53:06;;;;;;;62.50;28.63;;;-1.00;99.90;;;;;;5006027;28;20190;-58
2023/03/04 04:55:33;;;;;;;71.77;32.10;;;-1.00;99.90;;;;;;5007279;28;20605;-60
2023/03/04 04:57:58;;;;;;;78.30;31.13;;;-1.10;99.90;;;;;;5005314;28;20191;-58
2023/03/04 05:00:24;;;;;;;76.03;31.57;;;-1.10;99.90;;;;;;5007940;28;20433;-60
2023/03/04 05:02:50;;;;;;;63.20;29.47;;;-1.00;99.90;;;;;;5006563;28;20198;-59
2023/03/04 05:05:15;;;;;;;66.37;30.43;;;-1.00;99.90;;;;;;5005777;28;20527;-59
2023/03/04 05:07:41;;;;;;;64.00;30.63;;;-1.00;99.90;;;;;;5008757;28;20195;-59
2023/03/04 05:10:07;;;;;;;67.80;29.80;;;-1.00;99.90;;;;;;5010114;28;20337;-59
2023/03/04 05:12:33;;;;;;;63.90;28.17;;;-1.10;99.90;;;;;;5006737;28;20669;-58
2023/03/04 05:14:59;;;;;;;63.20;29.13;;;-1.10;99.90;;;;;;5011394;28;20567;-59
2023/03/04 05:17:24;;;;;;;64.77;29.23;;;-1.10;99.90;;;;;;5010690;28;20174;-60
2023/03/04 05:19:50;;;;;;;68.13;30.03;;;-1.10;99.90;;;;;;5011733;28;20182;-60
2023/03/04 05:22:15;;;;;;;66.10;28.60;;;-1.20;99.90;;;;;;5005517;28;20265;-59
2023/03/04 05:24:41;;;;;;;60.40;29.10;;;-1.20;99.90;;;;;;5008805;28;20174;-60
2023/03/04 05:27:06;;;;;;;66.93;28.33;;;-1.20;99.90;;;;;;5008024;28;20206;-59
2023/03/04 05:29:32;;;;;;;64.33;29.03;;;-1.30;99.90;;;;;;5006229;28;20627;-61
2023/03/04 05:31:58;;;;;;;70.40;29.67;;;-1.30;99.90;;;;;;5012502;28;20181;-60
2023/03/04 05:34:23;;;;;;;67.50;28.60;;;-1.30;99.90;;;;;;5011479;28;20869;-59
2023/03/04 05:36:49;;;;;;;68.17;29.90;;;-1.30;99.90;;;;;;5009937;28;20199;-59
2023/03/04 05:39:14;;;;;;;63.90;28.80;;;-1.30;99.90;;;;;;5005820;28;20687;-59
2023/03/04 05:41:40;;;;;;;66.23;29.87;;;-1.30;99.90;;;;;;5005912;28;20182;-58
2023/03/04 05:44:05;;;;;;;69.73;30.63;;;-1.30;99.90;;;;;;5010873;28;20650;-59
2023/03/04 05:46:31;;;;;;;61.90;28.77;;;-1.30;99.90;;;;;;5011094;28;20211;-61
2023/03/04 05:48:57;;;;;;;72.40;31.27;;;-1.30;99.90;;;;;;5013226;28;20181;-59
2023/03/04 05:51:22;;;;;;;70.73;32.77;;;-1.30;99.90;;;;;;5010522;28;20266;-59
2023/03/04 05:53:48;;;;;;;69.07;29.63;;;-1.30;99.90;;;;;;5025538;28;20182;-59
2023/03/04 05:56:17;;;;;;;72.37;31.83;;;-1.30;99.90;;;;;;5005695;28;20224;-60
2023/03/04 05:58:43;;;;;;;74.40;29.87;;;-1.30;99.90;;;;;;5001745;28;20525;-59
2023/03/04 06:01:09;;;;;;;63.33;28.63;;;-1.30;99.90;;;;;;5008809;28;20437;-59
2023/03/04 06:03:35;;;;;;;65.63;31.50;;;-1.30;99.90;;;;;;5009540;28;20471;-59
2023/03/04 06:06:00;;;;;;;70.70;30.97;;;-1.40;99.90;;;;;;5008527;28;20461;-59
2023/03/04 06:08:26;;;;;;;69.70;29.70;;;-1.40;99.90;;;;;;5006263;28;20568;-60
2023/03/04 06:10:54;;;;;;;63.03;28.77;;;-1.40;99.90;;;;;;5009164;28;20181;-60
2023/03/04 06:13:20;;;;;;;58.17;29.77;;;-1.40;99.90;;;;;;5007051;28;20552;-59
2023/03/04 06:15:46;;;;;;;63.97;31.80;;;-1.40;99.90;;;;;;5005445;28;20544;-59
2023/03/04 06:18:12;;;;;;;73.70;31.03;;;-1.50;99.90;;;;;;5004014;28;20551;-59
2023/03/04 06:20:38;;;;;;;76.07;29.73;;;-1.50;99.90;;;;;;5007386;28;21068;-59
2023/03/04 06:23:04;;;;;;;64.40;29.23;;;-1.40;99.90;;;;;;5008059;28;20329;-59
2023/03/04 06:25:30;;;;;;;66.83;31.20;;;-1.40;99.90;;;;;;5007303;28;20218;-60
2023/03/04 06:27:56;;;;;;;64.40;30.83;;;-1.40;99.90;;;;;;5008679;28;20181;-60
2023/03/04 06:30:21;;;;;;;65.20;30.47;;;-1.40;99.90;;;;;;5004747;28;20487;-59
2023/03/04 06:32:47;;;;;;;67.00;31.60;;;-1.40;99.90;;;;;;4999939;28;20185;-60
2023/03/04 06:35:14;;;;;;;67.10;30.37;;;-1.40;99.90;;;;;;5007990;28;20192;-59
2023/03/04 06:37:40;;;;;;;71.60;32.90;;;-1.40;99.90;;;;;;5008853;28;20640;-59
2023/03/04 06:40:09;;;;;;;63.80;30.03;;;-1.40;99.90;;;;;;5005281;28;20499;-59
2023/03/04 06:42:35;;;;;;;69.43;29.30;;;-1.40;99.90;;;;;;5003556;28;20183;-59
2023/03/04 06:45:01;;;;;;;74.00;32.17;;;-1.40;99.90;;;;;;5006055;28;20593;-60
2023/03/04 06:47:27;;;;;;;71.40;30.87;;;-1.40;99.90;;;;;;5006766;28;20439;-60
2023/03/04 06:49:53;;;;;;;74.23;32.23;;;-1.40;99.90;;;;;;5005763;28;20445;-59
2023/03/04 06:52:18;;;;;;;90.83;33.57;;;-1.30;99.90;;;;;;5006542;28;20434;-60
2023/03/04 06:54:44;;;;;;;74.97;33.77;;;-1.30;99.90;;;;;;5006904;28;20194;-60
2023/03/04 06:57:10;;;;;;;74.30;33.53;;;-1.20;99.90;;;;;;5001010;28;20654;-60
2023/03/04 06:59:35;;;;;;;75.23;32.97;;;-1.20;99.90;;;;;;5008678;28;20244;-60
2023/03/04 07:02:01;;;;;;;69.97;32.53;;;-1.10;99.90;;;;;;5006587;28;20670;-61
2023/03/04 07:04:27;;;;;;;68.30;31.77;;;-1.10;99.90;;;;;;5002109;28;20217;-59
2023/03/04 07:06:52;;;;;;;78.37;34.07;;;-1.00;99.90;;;;;;5000926;28;20277;-60
2023/03/04 07:09:18;;;;;;;75.10;32.03;;;-1.00;99.90;;;;;;5008976;28;20601;-59
2023/03/04 07:11:44;;;;;;;71.67;31.87;;;-1.00;99.90;;;;;;5006921;28;20182;-60
2023/03/04 07:14:09;;;;;;;74.23;31.80;;;-0.90;99.90;;;;;;5005650;28;20195;-60
2023/03/04 07:16:35;;;;;;;71.27;30.47;;;-0.80;99.90;;;;;;5002324;28;20464;-60
2023/03/04 07:19:01;;;;;;;70.30;29.90;;;-0.80;99.90;;;;;;5010276;28;20181;-60
2023/03/04 07:21:27;;;;;;;73.30;32.93;;;-0.70;99.90;;;;;;5000980;28;20587;-59
2023/03/04 07:23:52;;;;;;;63.90;29.97;;;-0.70;99.90;;;;;;5007124;28;20182;-59
2023/03/04 07:26:19;;;;;;;68.40;31.90;;;-0.60;99.90;;;;;;5002846;28;20619;-59
2023/03/04 07:28:44;;;;;;;74.07;30.27;;;-0.50;99.90;;;;;;5006601;28;20595;-59
2023/03/04 07:31:22;;;;;;;66.17;30.53;;;-0.50;99.90;;;;;;5006354;28;20537;-60
2023/03/04 07:33:48;;;;;;;76.57;31.83;;;-0.40;99.90;;;;;;5009729;28;20175;-60
2023/03/04 07:36:14;;;;;;;74.70;31.97;;;-0.40;99.90;;;;;;5011931;28;20467;-60
2023/03/04 07:38:45;;;;;;;88.50;33.67;;;-0.30;99.90;;;;;;5003579;28;20797;-60
2023/03/04 07:41:11;;;;;;;73.63;32.97;;;-0.20;99.90;;;;;;5006190;28;21150;-59
2023/03/04 07:43:36;;;;;;;72.07;32.97;;;-0.10;99.90;;;;;;5000943;28;20448;-60
2023/03/04 07:46:02;;;;;;;77.80;36.30;;;-0.10;99.90;;;;;;5001222;28;20259;-60
2023/03/04 07:48:28;;;;;;;79.53;35.43;;;0.00;99.90;;;;;;5010284;28;20199;-60
2023/03/04 07:51:03;;;;;;;77.10;33.90;;;0.00;99.90;;;;;;5002290;28;20213;-59
2023/03/04 07:53:30;;;;;;;74.10;33.60;;;0.10;99.90;;;;;;5004297;28;20261;-59
2023/03/04 07:55:55;;;;;;;84.43;33.67;;;0.10;99.90;;;;;;5004787;28;20481;-59
2023/03/04 07:58:21;;;;;;;74.27;32.60;;;0.20;99.90;;;;;;5000621;28;20837;-60
2023/03/04 08:00:46;;;;;;;76.97;34.33;;;0.20;99.90;;;;;;5002633;28;20187;-59
2023/03/04 08:03:12;;;;;;;87.53;37.67;;;0.30;99.90;;;;;;5004288;28;20187;-60
2023/03/04 08:05:41;;;;;;;86.83;38.03;;;0.40;99.90;;;;;;5007743;28;20238;-59
2023/03/04 08:08:07;;;;;;;85.17;37.50;;;0.50;99.90;;;;;;5002637;28;20700;-60
2023/03/04 08:10:32;;;;;;;93.50;41.23;;;0.50;99.90;;;;;;4998743;28;20541;-60
2023/03/04 08:12:58;;;;;;;93.73;38.13;;;0.60;99.90;;;;;;4999255;28;20286;-60
2023/03/04 08:15:26;;;;;;;97.20;39.30;;;0.70;99.90;;;;;;5005926;28;20203;-59
2023/03/04 08:17:52;;;;;;;96.67;38.43;;;0.80;99.90;;;;;;5003817;28;20194;-60
2023/03/04 08:20:17;;;;;;;88.13;40.93;;;0.80;99.90;;;;;;4996419;28;20437;-60
2023/03/04 08:22:43;;;;;;;86.77;40.10;;;0.90;99.90;;;;;;5005120;28;20442;-60
2023/03/04 08:25:09;;;;;;;97.23;39.17;;;1.00;99.90;;;;;;5005819;28;20750;-59
2023/03/04 08:27:36;;;;;;;77.87;37.90;;;1.10;99.90;;;;;;5001989;28;20188;-59
2023/03/04 08:30:05;;;;;;;84.53;39.60;;;1.20;99.90;;;;;;4999454;28;20461;-60
2023/03/04 08:32:30;;;;;;;91.13;39.53;;;1.30;99.90;;;;;;5006450;28;20433;-60
2023/03/04 08:34:56;;;;;;;85.47;39.93;;;1.30;99.90;;;;;;5008563;28;20796;-59
2023/03/04 08:37:22;;;;;;;87.80;39.90;;;1.40;99.90;;;;;;5008210;28;20597;-61
2023/03/04 08:39:48;;;;;;;91.50;38.77;;;1.50;99.90;;;;;;5009406;28;20659;-61
2023/03/04 08:42:14;;;;;;;95.73;40.60;;;1.60;99.90;;;;;;5007469;28;20971;-59
2023/03/04 08:44:40;;;;;;;89.00;40.63;;;1.60;99.90;;;;;;5000510;28;20218;-60
2023/03/04 08:47:09;;;;;;;89.00;40.37;;;1.70;99.90;;;;;;5000994;28;20487;-59
2023/03/04 08:49:34;;;;;;;90.30;40.33;;;1.90;99.90;;;;;;5006793;28;20900;-59
2023/03/04 08:52:00;;;;;;;95.33;40.13;;;2.00;99.90;;;;;;5001314;28;20470;-59
2023/03/04 08:54:26;;;;;;;102.50;44.23;;;2.10;99.90;;;;;;4998247;28;20220;-59
2023/03/04 08:56:51;;;;;;;101.83;43.00;;;2.30;99.90;;;;;;5002442;28;20292;-60
2023/03/04 08:59:17;;;;;;;96.77;42.67;;;2.50;99.90;;;;;;4993201;28;20810;-59
2023/03/04 09:01:43;;;;;;;90.67;40.03;;;2.60;98.40;;;;;;5000379;28;20180;-60
2023/03/04 09:04:08;;;;;;;94.17;42.00;;;2.70;95.50;;;;;;5001854;28;20666;-59
2023/03/04 09:06:34;;;;;;;92.67;40.80;;;2.80;95.50;;;;;;5001389;28;20220;-60
2023/03/04 09:09:00;;;;;;;92.57;41.40;;;2.90;96.10;;;;;;4995556;28;20218;-61
2023/03/04 09:11:25;;;;;;;95.13;41.47;;;3.00;95.20;;;;;;4997558;28;20609;-60
2023/03/04 09:13:51;;;;;;;93.10;41.53;;;3.20;94.50;;;;;;4998571;28;20199;-61
2023/03/04 09:16:17;;;;;;;101.10;42.30;;;3.30;95.70;;;;;;5007201;28;20315;-60
2023/03/04 09:18:43;;;;;;;84.93;40.50;;;3.40;95.30;;;;;;5004579;28;20304;-59
2023/03/04 09:21:10;;;;;;;101.53;42.00;;;3.50;93.60;;;;;;5004003;28;21775;-60
2023/03/04 09:23:36;;;;;;;83.77;40.30;;;3.70;95.20;;;;;;4991833;28;20535;-60
2023/03/04 09:26:18;;;;;;;96.07;40.80;;;3.90;94.10;;;;;;4997520;28;21134;-60
2023/03/04 09:28:44;;;;;;;96.80;42.10;;;4.00;91.90;;;;;;5000805;28;20527;-60
2023/03/04 09:31:11;;;;;;;99.17;40.43;;;4.20;91.50;;;;;;5000424;28;21131;-60
2023/03/04 09:33:37;;;;;;;88.03;40.50;;;4.30;90.70;;;;;;4997024;28;20177;-59
2023/03/04 09:36:03;;;;;;;83.73;37.17;;;4.50;87.40;;;;;;4998191;28;21021;-59
2023/03/04 09:38:29;;;;;;;90.17;36.63;;;4.70;81.30;;;;;;4997272;28;20208;-59
2023/03/04 09:40:55;;;;;;;87.60;40.10;;;4.80;78.70;;;;;;4997921;28;20196;-60
2023/03/04 09:43:28;;;;;;;99.33;40.07;;;5.00;79.80;;;;;;4999086;28;20169;-59
2023/03/04 09:46:09;;;;;;;85.57;39.60;;;5.10;81.80;;;;;;4997257;28;20492;-59
2023/03/04 09:48:48;;;;;;;83.80;37.47;;;5.40;81.80;;;;;;5005674;28;20446;-60
2023/03/04 09:51:48;;;;;;;84.47;38.13;;;5.60;79.80;;;;;;4996978;28;20512;-60
2023/03/04 09:54:29;;;;;;;83.10;38.77;;;5.80;76.20;;;;;;4995430;28;20806;-59
2023/03/04 09:57:21;;;;;;;91.77;39.23;;;6.00;75.10;;;;;;5005106;28;20542;-60
2023/03/04 09:59:52;;;;;;;89.37;38.40;;;6.20;71.90;;;;;;4994135;28;21012;-60
2023/03/04 10:02:28;;;;;;;80.90;38.43;;;6.30;69.50;;;;;;4998697;28;20945;-62
2023/03/04 10:04:59;;;;;;;89.43;38.80;;;6.40;68.00;;;;;;4997246;28;20439;-60
2023/03/04 10:07:32;;;;;;;85.40;37.37;;;6.50;68.50;;;;;;4995152;28;20498;-59
2023/03/04 10:10:20;;;;;;;84.03;38.47;;;6.60;68.10;;;;;;5001803;28;20451;-60
2023/03/04 10:12:49;;;;;;;77.27;36.30;;;6.80;67.10;;;;;;4999010;28;20459;-60
2023/03/04 10:15:30;;;;;;;77.17;36.30;;;6.90;64.10;;;;;;4998460;28;20479;-60
2023/03/04 10:18:02;;;;;;;74.90;35.90;;;6.90;63.30;;;;;;5002411;28;20511;-60
2023/03/04 10:20:52;;;;;;;78.20;36.07;;;7.00;63.50;;;;;;4998396;28;20479;-61
2023/03/04 10:23:21;;;;;;;71.43;34.00;;;7.10;63.30;;;;;;4992924;28;20445;-61
2023/03/04 10:25:52;;;;;;;68.80;34.03;;;7.30;62.80;;;;;;4995833;28;20479;-60
2023/03/04 10:28:23;;;;;;;71.23;35.80;;;7.40;62.40;;;;;;4992948;28;21235;-61
2023/03/04 10:30:56;;;;;;;73.53;34.60;;;7.50;61.80;;;;;;5002906;28;20448;-61
2023/03/04 10:33:25;;;;;;;74.30;34.20;;;7.60;61.00;;;;;;4994254;28;20482;-60
2023/03/04 10:36:00;;;;;;;74.47;35.27;;;7.70;60.20;;;;;;5001274;28;20876;-60
2023/03/04 10:38:30;;;;;;;70.10;32.70;;;7.80;59.60;;;;;;5006846;28;21009;-60
2023/03/04 10:40:57;;;;;;;66.23;32.10;;;7.80;59.30;;;;;;5004906;28;22220;-60
2023/03/04 10:43:23;;;;;;;78.37;34.50;;;7.90;59.20;;;;;;5004480;28;20502;-60
2023/03/04 10:45:54;;;;;;;77.00;34.63;;;8.00;58.50;;;;;;4997975;28;20471;-62
2023/03/04 10:48:23;;;;;;;64.40;31.77;;;8.10;58.10;;;;;;5000747;28;20191;-62
2023/03/04 10:50:49;;;;;;;67.30;31.90;;;8.20;58.70;;;;;;4998416;28;20871;-61
2023/03/04 10:53:28;;;;;;;73.63;33.60;;;8.20;58.10;;;;;;5003781;28;21183;-59
2023/03/04 10:55:54;;;;;;;82.90;34.73;;;8.40;58.60;;;;;;4995251;28;20206;-59
2023/03/04 10:58:20;;;;;;;69.17;32.33;;;8.50;58.60;;;;;;4999798;28;21192;-59
2023/03/04 11:01:02;;;;;;;77.63;35.57;;;8.70;58.40;;;;;;5004236;28;20180;-59
2023/03/04 11:03:35;;;;;;;69.40;33.40;;;8.80;58.60;;;;;;5001094;28;20948;-60
2023/03/04 11:06:10;;;;;;;66.70;32.10;;;9.00;57.30;;;;;;4997757;28;21014;-59
2023/03/04 11:08:39;;;;;;;64.17;30.60;;;9.10;56.80;;;;;;5005825;28;21090;-60
2023/03/04 11:11:43;;;;;;;68.23;31.27;;;9.10;56.50;;;;;;5001883;28;21023;-59
2023/03/04 11:14:41;;;;;;;60.03;30.77;;;9.20;56.00;;;;;;4997573;28;20453;-58
2023/03/04 11:17:22;;;;;;;66.77;30.67;;;9.20;55.50;;;;;;5000752;28;20900;-59
2023/03/04 11:20:13;;;;;;;63.83;29.87;;;9.20;55.30;;;;;;4997519;28;20517;-59
2023/03/04 11:22:39;;;;;;;64.23;29.90;;;9.30;55.10;;;;;;4994902;28;20435;-61
2023/03/04 11:25:16;;;;;;;64.30;28.80;;;9.50;54.60;;;;;;5005731;28;20906;-60
2023/03/04 11:27:46;;;;;;;54.87;27.10;;;9.60;54.30;;;;;;5008089;28;20526;-60
2023/03/04 11:30:37;;;;;;;53.60;27.30;;;9.80;53.70;;;;;;5004087;28;21248;-62
2023/03/04 11:33:17;;;;;;;55.83;27.27;;;10.00;52.40;;;;;;4996489;28;20432;-60
2023/03/04 11:35:52;;;;;;;53.93;27.70;;;10.30;51.60;;;;;;5002652;28;20451;-60
2023/03/04 11:38:21;;;;;;;53.37;27.00;;;10.60;50.70;;;;;;5009096;28;20791;-59
2023/03/04 11:41:08;;;;;;;56.87;28.73;;;10.90;50.40;;;;;;5006535;28;20447;-60
2023/03/04 11:43:35;;;;;;;43.53;23.10;;;11.30;49.80;;;;;;5007191;28;20439;-59
2023/03/04 11:46:25;;;;;;;36.40;20.03;;;11.50;48.30;;;;;;5007576;28;20569;-61
2023/03/04 11:49:06;;;;;;;40.40;21.60;;;11.80;47.80;;;;;;5004819;28;20436;-58
2023/03/04 11:51:31;;;;;;;48.30;23.07;;;12.00;47.10;;;;;;5006858;28;20498;-60
2023/03/04 11:54:24;;;;;;;35.27;18.30;;;12.30;47.20;;;;;;5006836;28;20900;-57
2023/03/04 11:56:55;;;;;;;35.07;17.97;;;12.50;46.70;;;;;;5006291;28;20227;-59
2023/03/04 11:59:24;;;;;;;33.03;18.77;;;12.70;45.40;;;;;;5007218;28;20522;-58
2023/03/04 12:02:07;;;;;;;34.90;17.17;;;12.60;44.50;;;;;;5007767;28;20838;-59
2023/03/04 12:04:45;;;;;;;28.70;14.27;;;12.50;43.90;;;;;;5006553;28;20462;-57
2023/03/04 12:07:13;;;;;;;29.67;15.57;;;12.60;43.90;;;;;;5004767;28;20459;-59
2023/03/04 12:09:54;;;;;;;22.23;10.90;;;13.00;43.00;;;;;;5004889;28;20464;-58
2023/03/04 12:12:41;;;;;;;23.90;10.90;;;13.50;40.80;;;;;;5023531;28;20419;-58
2023/03/04 12:15:19;;;;;;;37.30;17.60;;;14.10;38.00;;;;;;4993094;28;20470;-61
2023/03/04 12:18:03;;;;;;;35.57;16.70;;;14.60;38.10;;;;;;5007627;28;20427;-60
2023/03/04 12:20:31;;;;;;;23.90;11.63;;;15.00;38.60;;;;;;5011986;28;20427;-61
2023/03/04 12:23:19;;;;;;;19.17;7.70;;;15.30;37.00;;;;;;5009374;28;20439;-60
2023/03/04 12:26:02;;;;;;;16.67;9.83;;;15.60;34.00;;;;;;5009280;28;20477;-60
2023/03/04 12:28:42;;;;;;;19.67;9.50;;;15.70;32.50;;;;;;5007821;28;20553;-60
2023/03/04 12:31:14;;;;;;;17.57;9.73;;;15.70;32.60;;;;;;5008719;28;20904;-60
2023/03/04 12:33:53;;;;;;;22.50;12.00;;;15.60;32.10;;;;;;5004181;28;20435;-60
2023/03/04 12:36:44;;;;;;;21.67;12.43;;;15.50;32.10;;;;;;5012282;28;20459;-60
2023/03/04 12:39:28;;;;;;;18.20;10.30;;;15.40;33.30;;;;;;5004477;28;20459;-59
2023/03/04 12:42:00;;;;;;;24.40;12.53;;;15.20;31.90;;;;;;5008369;28;20434;-59